Impacts METAR Board
IDs:

KPDX - Portland Intl Arpt, OR, US

Updated at: 1800 UTC 26 Sep 2021
Potential Impact None Slight Moderate High
Time 26/06Z 26/07Z 26/08Z 26/09Z 26/10Z 26/11Z 26/12Z 26/13Z 26/14Z 26/15Z 26/16Z 26/17Z 26/18Z
Temp65 63 61 59 59 59 59 59 60 60 61 62 64
Dewpt53 52 52 51 51 51 51 51 50 50 50 50 49
Altim29.85 29.88 29.89 29.91 29.93 29.94 29.94 29.93 29.94 29.95 29.95 29.94 29.93
VIS10 10 10 10 10 10 10 10 10 10 10 10 10
CIG-- -- -- -- 18 16 20 25 23 23 29 34 32
CoverCLRCLRFEWFEWOVCOVCOVCOVCOVCOVCOVCBKNBKN
FltCatVFRVFRVFRVFRMVFRMVFRMVFRMVFRMVFRMVFRMVFRVFRVFR
WX--------------------------
WDir34000220210200180150160170160160180
WSpd3 0 0 4 9 6 6 6 5 3 3 8 8
WGst-- -- -- -- -- -- -- -- -- -- -- -- --
Raw hourly METARs
KPDX 260553Z 34003KT 10SM CLR 18/12 A2985 RMK AO2 SLP107 T01830117 10294 20172 51014
KPDX 260653Z 00000KT 10SM CLR 17/11 A2988 RMK AO2 SLP116 T01720111
KPDX 260753Z 00000KT 10SM FEW180 16/11 A2989 RMK AO2 SLP121 T01610111 402940133
KPDX 260853Z 22004KT 10SM FEW140 15/11 A2991 RMK AO2 SLP126 T01500106 51019
KPDX 260953Z 21009KT 10SM OVC018 15/11 A2993 RMK AO2 SLP132 T01500106
KPDX 261053Z 20006KT 10SM OVC016 15/11 A2994 RMK AO2 SLP137 T01500106
KPDX 261153Z 18006KT 10SM OVC020 15/11 A2994 RMK AO2 SLP136 T01500106 10183 20144 50010
KPDX 261253Z 15006KT 10SM OVC025 15/11 A2993 RMK AO2 SLP133 T01500106
KPDX 261353Z 16005KT 10SM OVC023 16/10 A2994 RMK AO2 SLP138 T01560100
KPDX 261453Z 17003KT 10SM OVC023 16/10 A2995 RMK AO2 SLP139 T01560100 53002
KPDX 261553Z 16003KT 10SM OVC029 16/10 A2995 RMK AO2 SLP142 T01610100
KPDX 261653Z 16008KT 10SM BKN034 BKN120 17/10 A2994 RMK AO2 SLP138 T01670100
KPDX 261753Z 18008KT 10SM BKN032 BKN070 18/09 A2993 RMK AO2 SLP133 T01780094 10178 20150 58006



Page loaded:  18:23 UTC  |   11:23 AM Pacific  |   12:23 PM Mountain  |   01:23 PM Central  |   02:23 PM Eastern

 

ADVISORIES

FORECASTS

FORECASTS

OBSERVATIONS

USER TOOLS

ABOUT US